Time;durP1;ratioP1;P1;durP2;ratioP2;P2;SDS_P1;SDS_P2;PMS_P1;PMS_P2;Temp;Humidity;BMP_temperature;BMP_pressure;BME280_temperature;BME280_humidity;BME280_pressure;Samples;Min_cycle;Max_cycle;Signal;HPM_P1;HPM_P2
2023/07/14 00:00:39;;;;;;;5.00;3.60;;;17.00;99.90;;;;;;5041000;28;20478;-53
2023/07/14 00:03:06;;;;;;;6.03;3.45;;;16.90;99.90;;;;;;5034990;28;20488;-56
2023/07/14 00:05:35;;;;;;;5.30;3.15;;;16.90;99.90;;;;;;5039306;28;20040;-50
2023/07/14 00:08:03;;;;;;;4.85;3.40;;;16.90;99.90;;;;;;5032830;28;20442;-49
2023/07/14 00:10:32;;;;;;;5.13;3.38;;;16.90;99.90;;;;;;5035956;28;20052;-52
2023/07/14 00:13:04;;;;;;;7.13;4.00;;;16.90;99.90;;;;;;5041565;28;20111;-51
2023/07/14 00:15:32;;;;;;;5.68;3.25;;;16.90;99.90;;;;;;5032819;28;20103;-51
2023/07/14 00:18:18;;;;;;;6.18;3.20;;;16.90;99.90;;;;;;5041851;28;20391;-52
2023/07/14 00:20:44;;;;;;;6.72;3.60;;;16.80;99.90;;;;;;5035547;28;20462;-49
2023/07/14 00:23:14;;;;;;;7.70;3.45;;;16.90;99.90;;;;;;5033092;28;20075;-51
2023/07/14 00:25:40;;;;;;;5.65;3.15;;;16.70;99.90;;;;;;5035225;28;20501;-48
2023/07/14 00:28:18;;;;;;;4.88;3.38;;;16.70;99.90;;;;;;5036652;28;20040;-52
2023/07/14 00:30:44;;;;;;;6.15;3.60;;;16.70;99.90;;;;;;5034721;28;20064;-52
2023/07/14 00:33:13;;;;;;;8.75;3.22;;;16.70;99.90;;;;;;5038885;28;20048;-50
2023/07/14 00:35:39;;;;;;;3.92;3.03;;;16.60;99.90;;;;;;5038908;28;20528;-50
2023/07/14 00:38:05;;;;;;;5.20;3.15;;;16.50;99.90;;;;;;5041849;28;20468;-50
2023/07/14 00:40:47;;;;;;;7.85;3.65;;;16.40;99.90;;;;;;5032633;28;20033;-51
2023/07/14 00:43:19;;;;;;;6.25;2.90;;;16.10;99.90;;;;;;5038663;28;20408;-57
2023/07/14 00:45:48;;;;;;;6.82;3.17;;;16.10;99.90;;;;;;5035330;28;20034;-50
2023/07/14 00:48:21;;;;;;;6.45;3.40;;;16.10;99.90;;;;;;5037673;28;20052;-51
2023/07/14 00:50:54;;;;;;;4.97;3.53;;;16.40;99.90;;;;;;5032652;28;20400;-51
2023/07/14 00:53:41;;;;;;;6.78;3.60;;;16.50;99.90;;;;;;5041494;28;20652;-49
2023/07/14 00:56:12;;;;;;;9.05;3.80;;;16.50;99.90;;;;;;5033396;28;20041;-50
2023/07/14 00:58:49;;;;;;;5.60;3.75;;;16.50;99.90;;;;;;5028202;28;20079;-52
2023/07/14 01:01:23;;;;;;;5.80;3.70;;;16.40;99.90;;;;;;5035310;28;20037;-53
2023/07/14 01:03:51;;;;;;;6.20;3.60;;;16.30;99.90;;;;;;5036806;28;20144;-53
2023/07/14 01:06:21;;;;;;;8.98;3.60;;;16.10;99.90;;;;;;5037967;28;20040;-53
2023/07/14 01:08:58;;;;;;;5.75;3.58;;;16.30;99.90;;;;;;5036850;28;20424;-64
2023/07/14 01:11:31;;;;;;;9.15;3.83;;;16.20;99.90;;;;;;5034922;28;20083;-51
2023/07/14 01:14:00;;;;;;;5.05;3.33;;;16.30;99.90;;;;;;5038468;28;20563;-54
2023/07/14 01:16:28;;;;;;;5.85;3.33;;;16.40;99.90;;;;;;5038223;28;20606;-52
2023/07/14 01:18:56;;;;;;;5.40;3.22;;;16.20;99.90;;;;;;5032175;28;20064;-56
2023/07/14 01:21:22;;;;;;;9.48;3.88;;;16.20;99.90;;;;;;5030990;28;20048;-52
2023/07/14 01:24:01;;;;;;;5.20;3.55;;;16.30;99.90;;;;;;5037695;28;20033;-53
2023/07/14 01:26:31;;;;;;;7.60;4.13;;;16.10;99.90;;;;;;5028773;28;20049;-52
2023/07/14 01:28:57;;;;;;;5.60;3.50;;;16.10;99.90;;;;;;5033586;28;20055;-54
2023/07/14 01:31:26;;;;;;;8.65;3.50;;;16.10;99.90;;;;;;5034666;28;20642;-52
2023/07/14 01:33:52;;;;;;;7.65;3.97;;;16.00;99.90;;;;;;5039443;28;20142;-51
2023/07/14 01:36:23;;;;;;;5.68;3.70;;;16.10;99.90;;;;;;5036750;28;20132;-50
2023/07/14 01:38:49;;;;;;;9.52;4.00;;;15.90;99.90;;;;;;5031431;28;20575;-52
2023/07/14 01:41:15;;;;;;;5.75;3.85;;;15.90;99.90;;;;;;5040892;28;20591;-61
2023/07/14 01:43:42;;;;;;;8.57;3.70;;;16.00;99.90;;;;;;5040737;28;20033;-51
2023/07/14 01:46:14;;;;;;;6.13;3.35;;;16.00;99.90;;;;;;5032615;28;20602;-56
2023/07/14 01:49:07;;;;;;;9.95;3.63;;;16.10;99.90;;;;;;5029341;28;20039;-55
2023/07/14 01:51:38;;;;;;;6.03;3.60;;;15.90;99.90;;;;;;5026584;28;20072;-51
2023/07/14 01:54:16;;;;;;;5.32;3.63;;;15.80;99.90;;;;;;5040751;28;20033;-56
2023/07/14 01:56:42;;;;;;;7.18;3.85;;;15.80;99.90;;;;;;5034950;28;20040;-52
2023/07/14 01:59:16;;;;;;;4.95;3.80;;;15.90;99.90;;;;;;5027900;28;20033;-52
2023/07/14 02:01:44;;;;;;;9.15;4.20;;;15.90;99.90;;;;;;5037600;28;21537;-49
2023/07/14 02:04:26;;;;;;;4.10;3.38;;;15.90;99.90;;;;;;5042161;28;20060;-52
2023/07/14 02:06:56;;;;;;;7.75;3.80;;;15.90;99.90;;;;;;5030066;28;20057;-57
2023/07/14 02:09:23;;;;;;;6.03;3.30;;;15.90;99.90;;;;;;5030395;28;20128;-52
2023/07/14 02:11:52;;;;;;;6.85;4.05;;;15.90;99.90;;;;;;5032127;28;20071;-53
2023/07/14 02:14:20;;;;;;;5.10;3.75;;;15.80;99.90;;;;;;5031473;28;20060;-52
2023/07/14 02:16:47;;;;;;;6.35;3.80;;;15.90;99.90;;;;;;5034283;28;20028;-50
2023/07/14 02:19:19;;;;;;;9.27;4.43;;;15.90;99.90;;;;;;5038802;28;20045;-54
2023/07/14 02:21:45;;;;;;;5.10;3.75;;;15.90;99.90;;;;;;5035926;28;20935;-55
2023/07/14 02:24:20;;;;;;;8.00;3.83;;;15.80;99.90;;;;;;5030338;28;20582;-53
2023/07/14 02:26:49;;;;;;;7.85;3.90;;;15.70;99.90;;;;;;5042627;28;20484;-55
2023/07/14 02:29:15;;;;;;;7.53;4.18;;;15.80;99.90;;;;;;5040132;28;20440;-51
2023/07/14 02:31:50;;;;;;;7.90;3.97;;;16.80;99.90;;;;;;5030799;28;20485;-54
2023/07/14 02:34:17;;;;;;;8.73;4.00;;;15.70;99.90;;;;;;5042369;28;20502;-51
2023/07/14 02:36:59;;;;;;;8.32;4.32;;;15.70;99.90;;;;;;5041071;28;20033;-50
2023/07/14 02:39:26;;;;;;;7.40;4.13;;;15.60;99.90;;;;;;5040994;28;20040;-51
2023/07/14 02:41:55;;;;;;;6.50;3.58;;;15.70;99.90;;;;;;5039114;28;20246;-54
2023/07/14 02:44:32;;;;;;;8.90;4.13;;;15.60;99.90;;;;;;5041440;28;20447;-52
2023/07/14 02:47:06;;;;;;;6.97;3.78;;;15.60;99.90;;;;;;5034035;28;20037;-53
2023/07/14 02:49:32;;;;;;;6.07;3.75;;;15.60;99.90;;;;;;5040302;28;20408;-53
2023/07/14 02:51:57;;;;;;;8.45;3.95;;;15.50;99.90;;;;;;5042270;28;20033;-53
2023/07/14 02:54:25;;;;;;;8.50;3.78;;;15.50;99.90;;;;;;5032594;28;20032;-52
2023/07/14 02:56:52;;;;;;;7.68;3.50;;;15.60;99.90;;;;;;5041617;28;20756;-52
2023/07/14 02:59:19;;;;;;;5.43;3.15;;;15.60;99.90;;;;;;5044779;28;20045;-54
2023/07/14 03:01:44;;;;;;;7.80;3.70;;;15.60;99.90;;;;;;5036053;28;20033;-54
2023/07/14 03:04:10;;;;;;;9.27;3.35;;;15.70;99.90;;;;;;5041792;28;20126;-59
2023/07/14 03:06:36;;;;;;;7.88;3.38;;;15.70;99.90;;;;;;5034651;28;20049;-51
2023/07/14 03:09:02;;;;;;;7.80;3.85;;;15.60;99.90;;;;;;5043015;28;20515;-52
2023/07/14 03:11:28;;;;;;;6.75;3.72;;;15.70;99.90;;;;;;5037472;28;20083;-55
2023/07/14 03:13:53;;;;;;;6.82;3.97;;;15.60;99.90;;;;;;5042583;28;20385;-51
2023/07/14 03:16:19;;;;;;;7.18;3.67;;;15.40;99.90;;;;;;5037332;28;20033;-59
2023/07/14 03:18:45;;;;;;;8.18;3.92;;;15.50;99.90;;;;;;5038484;28;20608;-56
2023/07/14 03:21:12;;;;;;;9.05;4.40;;;15.40;99.90;;;;;;5034131;28;20038;-52
2023/07/14 03:23:38;;;;;;;5.78;3.70;;;15.40;99.90;;;;;;5038323;28;20400;-56
2023/07/14 03:26:06;;;;;;;10.48;3.78;;;15.50;99.90;;;;;;5033738;28;20056;-53
2023/07/14 03:28:33;;;;;;;8.75;4.25;;;15.40;99.90;;;;;;5037379;28;20033;-52
2023/07/14 03:31:01;;;;;;;11.15;3.97;;;15.50;99.90;;;;;;5037445;28;20040;-57
2023/07/14 03:33:27;;;;;;;8.23;3.90;;;15.60;99.90;;;;;;5034197;28;20067;-53
2023/07/14 03:35:52;;;;;;;9.20;4.00;;;15.60;99.90;;;;;;5033047;28;20037;-53
2023/07/14 03:38:18;;;;;;;8.45;3.97;;;15.70;99.90;;;;;;5032575;28;20034;-52
2023/07/14 03:40:44;;;;;;;7.20;3.70;;;15.40;99.90;;;;;;5034955;28;20063;-57
2023/07/14 03:43:10;;;;;;;10.25;3.80;;;15.70;99.90;;;;;;5029398;28;20037;-55
2023/07/14 03:45:36;;;;;;;6.97;3.90;;;15.50;99.90;;;;;;5033348;28;20563;-58
2023/07/14 03:48:04;;;;;;;6.22;3.58;;;15.50;99.90;;;;;;5039948;28;20037;-49
2023/07/14 03:50:30;;;;;;;6.20;3.92;;;15.40;99.90;;;;;;5041826;28;20095;-51
2023/07/14 03:52:56;;;;;;;8.07;3.67;;;15.60;99.90;;;;;;5033927;28;20060;-53
2023/07/14 03:55:22;;;;;;;6.25;3.58;;;15.50;99.90;;;;;;5030010;28;20444;-53
2023/07/14 03:57:47;;;;;;;5.60;3.78;;;15.60;99.90;;;;;;5034529;28;20115;-56
2023/07/14 04:00:17;;;;;;;5.05;3.67;;;15.70;99.90;;;;;;5037493;28;20029;-54
2023/07/14 04:02:43;;;;;;;7.30;4.07;;;15.70;99.90;;;;;;5035636;28;20496;-55
2023/07/14 04:05:10;;;;;;;8.57;3.83;;;15.70;99.90;;;;;;5041337;28;20048;-52
2023/07/14 04:07:37;;;;;;;8.52;3.80;;;15.80;99.90;;;;;;5033464;28;20048;-51
2023/07/14 04:10:04;;;;;;;5.65;3.40;;;15.80;99.90;;;;;;5038743;28;20037;-50
2023/07/14 04:12:30;;;;;;;8.15;3.78;;;15.70;99.90;;;;;;5033687;28;20048;-49
2023/07/14 04:14:56;;;;;;;7.35;4.53;;;15.70;99.90;;;;;;5037287;28;20037;-51
2023/07/14 04:17:22;;;;;;;6.93;3.53;;;15.90;99.90;;;;;;5034861;28;20041;-50
2023/07/14 04:19:48;;;;;;;6.95;4.07;;;15.90;99.90;;;;;;5037843;28;20041;-53
2023/07/14 04:22:14;;;;;;;7.65;3.55;;;15.90;99.90;;;;;;5036989;28;20068;-50
2023/07/14 04:24:40;;;;;;;8.25;3.85;;;15.70;99.90;;;;;;5040835;28;20037;-57
2023/07/14 04:27:06;;;;;;;6.63;3.70;;;15.70;99.90;;;;;;5038156;28;20788;-57
2023/07/14 04:29:32;;;;;;;9.70;4.07;;;15.80;99.90;;;;;;5030284;28;20124;-53
2023/07/14 04:31:58;;;;;;;6.32;3.70;;;15.80;99.90;;;;;;5033846;28;20144;-51
2023/07/14 04:34:26;;;;;;;6.90;3.88;;;15.90;99.90;;;;;;5034467;28;20494;-53
2023/07/14 04:36:51;;;;;;;8.55;3.90;;;15.80;99.90;;;;;;5032096;28;20489;-52
2023/07/14 04:39:17;;;;;;;8.02;3.88;;;16.00;99.90;;;;;;5032023;28;20043;-52
2023/07/14 04:41:44;;;;;;;8.82;4.13;;;16.10;99.90;;;;;;5032895;28;20033;-55
2023/07/14 04:44:13;;;;;;;11.63;4.10;;;15.50;99.90;;;;;;5039687;28;20068;-56
2023/07/14 04:46:40;;;;;;;4.57;3.88;;;16.20;99.90;;;;;;5025166;28;20041;-53
2023/07/14 04:49:07;;;;;;;6.30;3.85;;;16.10;99.90;;;;;;5029749;28;20488;-51
2023/07/14 04:51:33;;;;;;;8.82;4.00;;;16.10;99.90;;;;;;5035601;28;20029;-58
2023/07/14 04:53:58;;;;;;;6.30;3.83;;;16.10;99.90;;;;;;5035951;28;20026;-59
2023/07/14 04:56:25;;;;;;;11.93;4.30;;;16.30;99.90;;;;;;5029113;28;20488;-51
2023/07/14 04:58:50;;;;;;;9.88;4.20;;;16.40;99.90;;;;;;5042199;28;20041;-51
2023/07/14 05:01:16;;;;;;;8.85;4.35;;;16.40;99.90;;;;;;5041240;28;20044;-55
2023/07/14 05:03:43;;;;;;;8.60;4.07;;;16.40;99.90;;;;;;5039386;28;21207;-51
2023/07/14 05:06:09;;;;;;;9.18;4.30;;;16.40;99.90;;;;;;5036104;28;20037;-55
2023/07/14 05:08:35;;;;;;;7.53;4.05;;;16.60;99.90;;;;;;5029787;28;20431;-52
2023/07/14 05:11:01;;;;;;;9.02;4.18;;;16.80;99.90;;;;;;5035392;28;20040;-51
2023/07/14 05:13:26;;;;;;;8.13;4.10;;;16.70;99.90;;;;;;5028347;28;20120;-49
2023/07/14 05:15:52;;;;;;;9.38;4.15;;;16.70;99.90;;;;;;5035093;28;20041;-51
2023/07/14 05:18:18;;;;;;;7.00;4.20;;;16.70;99.90;;;;;;5036595;28;20045;-51
2023/07/14 05:20:44;;;;;;;6.55;3.92;;;16.70;99.90;;;;;;5036044;28;20425;-50
2023/07/14 05:23:11;;;;;;;5.90;3.60;;;16.70;99.90;;;;;;5032256;28;20060;-56
2023/07/14 05:25:37;;;;;;;9.07;4.18;;;16.60;99.90;;;;;;5032924;28;20385;-53
2023/07/14 05:28:03;;;;;;;8.95;3.97;;;16.70;99.90;;;;;;5036954;28;20551;-47
2023/07/14 05:30:28;;;;;;;10.23;4.00;;;16.70;99.90;;;;;;5037623;28;20045;-51
2023/07/14 05:32:54;;;;;;;7.63;3.72;;;16.80;99.90;;;;;;5037747;28;20238;-50
2023/07/14 05:35:21;;;;;;;5.78;3.53;;;17.10;99.90;;;;;;5041029;28;20462;-47
2023/07/14 05:37:46;;;;;;;7.22;3.63;;;16.80;99.90;;;;;;5033877;28;20618;-49
2023/07/14 05:40:14;;;;;;;7.22;3.50;;;17.90;99.90;;;;;;5035828;28;20029;-52
2023/07/14 05:42:41;;;;;;;6.85;3.70;;;17.30;99.90;;;;;;5031291;28;20030;-50
2023/07/14 05:45:08;;;;;;;6.95;3.67;;;17.10;99.90;;;;;;5041069;28;20037;-50
2023/07/14 05:47:36;;;;;;;6.05;3.33;;;17.30;99.90;;;;;;5041893;28;20565;-55
2023/07/14 05:50:03;;;;;;;8.75;3.42;;;17.50;99.90;;;;;;5034813;28;20539;-49
2023/07/14 05:52:29;;;;;;;7.45;3.45;;;17.60;99.90;;;;;;5033363;28;20057;-47
2023/07/14 05:54:55;;;;;;;9.52;3.50;;;17.80;99.90;;;;;;5039298;28;20049;-49
2023/07/14 05:57:20;;;;;;;8.13;3.08;;;17.90;99.90;;;;;;5038052;28;20552;-47
2023/07/14 05:59:46;;;;;;;7.32;3.20;;;17.90;99.90;;;;;;5045047;28;20040;-51
2023/07/14 06:02:14;;;;;;;7.18;3.25;;;18.00;99.90;;;;;;5032473;28;20120;-53
2023/07/14 06:04:42;;;;;;;0.00;0.00;;;18.10;99.90;;;;;;5039591;28;20071;-50
2023/07/14 06:07:13;;;;;;;0.00;0.00;;;18.20;99.90;;;;;;5028066;28;20033;-50
2023/07/14 06:09:39;;;;;;;0.00;0.00;;;18.30;99.90;;;;;;5037126;28;20037;-50
2023/07/14 06:12:06;;;;;;;0.00;0.00;;;18.50;99.90;;;;;;5036268;28;20041;-53
2023/07/14 06:14:34;;;;;;;0.00;0.00;;;18.60;99.90;;;;;;5034303;28;20488;-50
2023/07/14 06:17:00;;;;;;;0.25;0.25;;;18.70;99.90;;;;;;5046907;28;20443;-52
2023/07/14 06:19:27;;;;;;;1.27;1.27;;;18.80;99.90;;;;;;5045457;28;20095;-52
2023/07/14 06:21:53;;;;;;;0.00;0.00;;;18.80;99.90;;;;;;5044067;28;20446;-50
2023/07/14 06:24:19;;;;;;;0.00;0.00;;;19.00;99.90;;;;;;5034988;28;20396;-51
2023/07/14 06:26:45;;;;;;;4.28;1.60;;;19.10;99.90;;;;;;5040975;28;20040;-53
2023/07/14 06:29:11;;;;;;;0.00;0.00;;;19.20;99.90;;;;;;5034211;28;20319;-49
2023/07/14 06:31:36;;;;;;;0.00;0.00;;;19.30;99.90;;;;;;5041168;28;20547;-52
2023/07/14 06:34:03;;;;;;;0.00;0.00;;;19.50;99.90;;;;;;5039826;28;20037;-52
2023/07/14 06:36:29;;;;;;;7.32;5.93;;;19.60;99.90;;;;;;5042044;28;20456;-52
2023/07/14 06:38:54;;;;;;;11.05;3.05;;;19.60;99.90;;;;;;5034519;28;20033;-53
2023/07/14 06:41:20;;;;;;;6.55;2.80;;;19.60;99.90;;;;;;5038868;28;20073;-53
2023/07/14 06:43:46;;;;;;;9.07;2.90;;;19.80;99.90;;;;;;5028293;28;20037;-58
2023/07/14 06:46:12;;;;;;;5.72;2.47;;;19.90;99.90;;;;;;5043237;28;20069;-53
2023/07/14 06:48:38;;;;;;;8.00;3.00;;;20.00;99.90;;;;;;5040491;28;20400;-53
2023/07/14 06:51:03;;;;;;;6.18;2.67;;;20.10;99.90;;;;;;5040267;28;20040;-51
2023/07/14 06:53:29;;;;;;;7.72;2.60;;;20.20;99.90;;;;;;5037066;28;20054;-50
2023/07/14 06:55:55;;;;;;;7.65;2.35;;;20.30;99.90;;;;;;5039810;28;20036;-50
2023/07/14 06:58:20;;;;;;;6.65;2.38;;;20.40;99.90;;;;;;5037783;28;20039;-51
2023/07/14 07:00:46;;;;;;;6.07;2.90;;;20.40;99.90;;;;;;5037205;28;20033;-52
2023/07/14 07:03:11;;;;;;;4.60;2.38;;;20.50;99.90;;;;;;5039140;28;20029;-52
2023/07/14 07:05:41;;;;;;;6.25;2.45;;;20.40;99.90;;;;;;5035710;28;20057;-50
2023/07/14 07:08:12;;;;;;;5.22;2.60;;;20.50;99.90;;;;;;5043127;28;20544;-51
2023/07/14 07:10:41;;;;;;;6.70;2.40;;;20.60;99.90;;;;;;5038069;28;20040;-52
2023/07/14 07:13:06;;;;;;;5.70;2.15;;;20.70;99.90;;;;;;5041750;28;20032;-53
2023/07/14 07:15:32;;;;;;;8.05;2.40;;;20.70;99.90;;;;;;5031895;28;20041;-57
2023/07/14 07:17:57;;;;;;;6.22;2.53;;;20.70;99.90;;;;;;5036693;28;20037;-53
2023/07/14 07:20:23;;;;;;;9.45;2.90;;;20.70;99.90;;;;;;5032289;28;20036;-51
2023/07/14 07:22:49;;;;;;;9.02;2.85;;;20.60;99.90;;;;;;5040941;28;20036;-49
2023/07/14 07:25:16;;;;;;;8.63;2.63;;;20.80;99.90;;;;;;5037129;28;20119;-50
2023/07/14 07:27:42;;;;;;;6.75;2.60;;;20.70;99.90;;;;;;5023271;28;20588;-51
2023/07/14 07:30:09;;;;;;;6.03;2.28;;;20.80;99.90;;;;;;5027592;28;20061;-51
2023/07/14 07:32:36;;;;;;;6.85;2.80;;;20.90;99.90;;;;;;5029071;28;20481;-52
2023/07/14 07:35:03;;;;;;;5.60;2.25;;;20.90;99.90;;;;;;5031443;28;20036;-52
2023/07/14 07:37:32;;;;;;;6.40;2.58;;;20.80;99.90;;;;;;5030870;28;22056;-52
2023/07/14 07:39:58;;;;;;;10.00;3.03;;;20.80;99.90;;;;;;5031202;28;20048;-52
2023/07/14 07:42:24;;;;;;;5.03;2.78;;;20.90;99.90;;;;;;5022253;28;20103;-53
2023/07/14 07:44:50;;;;;;;6.22;3.38;;;21.10;99.90;;;;;;5035619;28;20151;-49
2023/07/14 07:47:15;;;;;;;7.05;3.67;;;21.20;99.90;;;;;;5033957;28;20106;-52
2023/07/14 07:49:41;;;;;;;5.30;2.50;;;21.20;99.90;;;;;;5037501;28;20144;-54
2023/07/14 07:52:08;;;;;;;6.15;2.67;;;21.20;99.90;;;;;;5036330;28;20045;-52
2023/07/14 07:54:34;;;;;;;5.10;2.30;;;21.20;99.90;;;;;;5042060;28;20029;-48
2023/07/14 07:56:59;;;;;;;6.13;2.30;;;21.40;99.90;;;;;;5040266;28;20034;-51
2023/07/14 07:59:26;;;;;;;5.43;2.35;;;21.50;99.90;;;;;;5032289;28;20458;-47
2023/07/14 08:01:52;;;;;;;8.20;2.60;;;21.70;99.90;;;;;;5034127;28;20044;-52
2023/07/14 08:04:18;;;;;;;7.97;3.05;;;22.00;99.90;;;;;;5040060;28;20400;-49
2023/07/14 08:06:44;;;;;;;7.07;2.50;;;22.00;99.90;;;;;;5034977;28;20131;-47
2023/07/14 08:09:12;;;;;;;4.85;2.47;;;22.00;99.90;;;;;;5040738;28;20512;-49
2023/07/14 08:11:38;;;;;;;5.32;2.38;;;22.10;99.90;;;;;;5040218;28;20082;-51
2023/07/14 08:14:06;;;;;;;4.65;2.30;;;22.00;99.90;;;;;;5034804;28;20464;-51
2023/07/14 08:16:31;;;;;;;6.43;2.40;;;22.40;99.90;;;;;;5040630;28;20083;-50
2023/07/14 08:18:59;;;;;;;6.55;2.65;;;22.10;99.90;;;;;;5040204;28;20052;-47
2023/07/14 08:21:25;;;;;;;6.70;2.42;;;22.10;99.90;;;;;;5034769;28;20148;-49
2023/07/14 08:23:51;;;;;;;6.00;2.40;;;22.00;99.90;;;;;;5037648;28;20505;-51
2023/07/14 08:26:16;;;;;;;6.13;2.22;;;22.10;99.90;;;;;;5036413;28;20156;-53
2023/07/14 08:28:42;;;;;;;5.40;2.30;;;22.30;99.90;;;;;;5040505;28;20667;-51
2023/07/14 08:31:12;;;;;;;10.23;2.40;;;22.40;99.90;;;;;;5035097;28;20045;-50
2023/07/14 08:33:42;;;;;;;6.97;2.17;;;22.50;99.90;;;;;;5038633;28;20119;-48
2023/07/14 08:36:08;;;;;;;6.82;2.60;;;22.40;99.90;;;;;;5035247;28;20503;-52
2023/07/14 08:38:34;;;;;;;5.07;2.10;;;22.40;99.90;;;;;;5040925;28;20029;-53
2023/07/14 08:41:20;;;;;;;3.63;2.10;;;22.60;99.90;;;;;;5039359;28;20299;-50
2023/07/14 08:43:55;;;;;;;7.25;2.78;;;22.90;99.90;;;;;;5037843;28;20503;-50
2023/07/14 08:46:43;;;;;;;12.55;4.43;;;23.00;99.90;;;;;;5030742;28;20448;-51
2023/07/14 08:49:23;;;;;;;7.75;2.35;;;22.90;99.90;;;;;;5032927;28;20029;-50
2023/07/14 08:51:56;;;;;;;4.70;2.30;;;23.10;99.90;;;;;;5038636;28;20472;-49
2023/07/14 08:54:26;;;;;;;7.97;2.53;;;23.30;99.90;;;;;;5035892;28;20499;-50
2023/07/14 08:56:52;;;;;;;7.30;2.50;;;23.40;99.90;;;;;;5036750;28;20057;-49
2023/07/14 08:59:40;;;;;;;8.38;2.30;;;23.50;99.90;;;;;;5038471;28;20075;-51
2023/07/14 09:02:21;;;;;;;7.85;1.92;;;23.70;99.90;;;;;;5032166;28;20501;-51
2023/07/14 09:04:58;;;;;;;6.65;2.22;;;23.60;99.90;;;;;;5034633;28;20528;-51
2023/07/14 09:07:23;;;;;;;5.20;1.88;;;23.50;99.90;;;;;;5041346;28;20035;-52
2023/07/14 09:09:49;;;;;;;5.00;1.77;;;23.50;99.90;;;;;;5040026;28;20035;-53
2023/07/14 09:12:28;;;;;;;5.13;2.00;;;23.70;99.90;;;;;;5041298;28;20451;-49
2023/07/14 09:15:02;;;;;;;6.80;2.28;;;23.70;99.90;;;;;;5037670;28;20040;-53
2023/07/14 09:17:48;;;;;;;4.40;1.83;;;23.60;99.90;;;;;;5038879;28;20095;-50
2023/07/14 09:20:52;;;;;;;4.63;1.80;;;23.60;99.90;;;;;;5037614;28;20126;-51
2023/07/14 09:23:35;;;;;;;;;;;23.80;99.90;;;;;;5041102;28;20087;-50
2023/07/14 09:26:15;;;;;;;5.60;2.28;;;23.90;99.90;;;;;;5041188;28;19935;-50
2023/07/14 09:28:46;;;;;;;4.70;2.20;;;23.90;99.90;;;;;;5038823;28;20435;-49
2023/07/14 09:31:39;;;;;;;5.38;2.22;;;24.00;99.90;;;;;;5037826;28;20608;-51
2023/07/14 09:34:12;;;;;;;7.20;2.13;;;24.10;99.90;;;;;;5042083;28;20091;-50
2023/07/14 09:36:39;;;;;;;7.13;2.10;;;24.40;99.90;;;;;;5034355;28;20041;-50
2023/07/14 09:39:11;;;;;;;6.88;2.30;;;24.40;99.90;;;;;;5029980;28;20538;-50
2023/07/14 09:41:36;;;;;;;7.43;2.30;;;24.50;99.90;;;;;;5042028;28;20160;-51
2023/07/14 09:44:02;;;;;;;10.02;2.85;;;24.50;99.90;;;;;;5041952;28;20486;-50
2023/07/14 09:46:37;;;;;;;5.43;2.15;;;24.70;99.90;;;;;;5044225;28;20040;-51
2023/07/14 09:49:27;;;;;;;5.60;2.00;;;24.90;99.90;;;;;;5040083;28;20435;-49
2023/07/14 09:52:10;;;;;;;8.15;2.25;;;25.00;99.90;;;;;;5042543;28;20829;-51
2023/07/14 09:54:41;;;;;;;6.93;2.40;;;25.10;99.90;;;;;;5041899;28;20036;-51
2023/07/14 09:57:11;;;;;;;8.32;2.40;;;25.10;99.90;;;;;;5036576;28;20672;-50
2023/07/14 09:59:59;;;;;;;5.28;2.42;;;25.10;99.90;;;;;;5039207;28;20052;-53
2023/07/14 10:02:34;;;;;;;5.90;2.10;;;25.10;99.90;;;;;;5038381;28;20186;-47
2023/07/14 10:05:30;;;;;;;6.47;2.47;;;25.30;99.90;;;;;;5044314;28;20041;-49
2023/07/14 10:07:56;;;;;;;5.40;1.95;;;25.50;99.90;;;;;;5006553;28;20033;-48
2023/07/14 10:10:26;;;;;;;4.80;2.30;;;25.40;99.90;;;;;;5041179;28;20051;-50
2023/07/14 10:12:52;;;;;;;4.50;2.20;;;25.30;99.90;;;;;;5044915;28;20414;-51
2023/07/14 10:15:22;;;;;;;7.88;2.40;;;25.20;99.90;;;;;;5042941;28;20729;-54
2023/07/14 10:17:52;;;;;;;5.40;2.22;;;25.00;99.90;;;;;;5036313;28;20574;-59
2023/07/14 10:20:21;;;;;;;4.85;2.03;;;25.00;99.90;;;;;;5039504;28;20478;-58
2023/07/14 10:22:51;;;;;;;3.78;2.08;;;24.90;99.90;;;;;;5043622;28;20128;-56
2023/07/14 10:25:17;;;;;;;5.45;2.17;;;25.00;99.90;;;;;;5031432;28;20056;-51
2023/07/14 10:27:54;;;;;;;6.70;2.40;;;25.00;99.90;;;;;;5036806;28;20033;-57
2023/07/14 10:30:35;;;;;;;4.95;2.40;;;25.10;99.90;;;;;;5034862;28;20064;-53
2023/07/14 10:33:01;;;;;;;6.10;2.58;;;25.20;99.90;;;;;;5041185;28;20029;-52
2023/07/14 10:35:29;;;;;;;6.05;2.55;;;25.30;99.90;;;;;;5040835;28;20042;-50
2023/07/14 10:38:33;;;;;;;7.28;2.28;;;25.10;99.90;;;;;;5041592;28;20125;-52
2023/07/14 10:41:05;;;;;;;5.75;2.60;;;25.00;99.90;;;;;;5012075;28;20075;-52
2023/07/14 10:43:36;;;;;;;7.30;2.25;;;25.20;99.90;;;;;;5035357;28;20516;-53
2023/07/14 10:46:11;;;;;;;5.13;2.42;;;25.20;99.90;;;;;;5039612;28;20607;-52
2023/07/14 10:48:44;;;;;;;7.25;2.20;;;25.40;99.90;;;;;;5042534;28;20052;-49
2023/07/14 10:51:41;;;;;;;4.50;2.03;;;25.30;99.90;;;;;;5041541;28;20037;-50
2023/07/14 10:54:16;;;;;;;3.85;2.25;;;25.30;99.90;;;;;;5033290;28;20412;-54
2023/07/14 10:56:54;;;;;;;5.75;2.30;;;25.30;99.90;;;;;;5037882;28;20057;-50
2023/07/14 10:59:34;;;;;;;5.28;2.10;;;25.40;99.90;;;;;;5040213;28;20040;-51
2023/07/14 11:02:40;;;;;;;4.97;2.55;;;25.20;99.90;;;;;;5036450;28;20492;-51
2023/07/14 11:05:13;;;;;;;7.28;2.20;;;25.20;99.90;;;;;;5042352;28;20556;-51
2023/07/14 11:07:39;;;;;;;;;;;25.20;99.90;;;;;;5039067;28;20033;-47
2023/07/14 11:10:27;;;;;;;6.05;2.55;;;25.20;99.90;;;;;;5044361;28;19912;-50
2023/07/14 11:13:14;;;;;;;7.70;2.95;;;25.10;99.90;;;;;;5034357;28;20056;-48
2023/07/14 11:15:50;;;;;;;7.38;2.53;;;25.20;99.90;;;;;;5032266;28;20108;-49
2023/07/14 11:18:29;;;;;;;6.40;2.22;;;25.40;99.90;;;;;;5040897;28;20496;-51
2023/07/14 11:21:27;;;;;;;5.07;2.40;;;25.70;99.90;;;;;;5031005;28;20460;-47
2023/07/14 11:24:17;;;;;;;7.85;2.85;;;25.80;99.90;;;;;;5038002;28;20511;-46
2023/07/14 11:27:20;;;;;;;5.10;2.22;;;25.80;99.90;;;;;;5037760;28;20119;-48
2023/07/14 11:30:15;;;;;;;4.93;2.55;;;25.80;99.90;;;;;;5024878;28;20490;-51
2023/07/14 11:32:56;;;;;;;5.07;2.30;;;25.80;99.90;;;;;;5035163;28;20029;-51
2023/07/14 11:35:40;;;;;;;5.05;2.45;;;25.70;99.90;;;;;;5036835;28;20569;-60
2023/07/14 11:38:24;;;;;;;;;;;25.70;99.90;;;;;;5038278;28;20061;-56
2023/07/14 11:40:50;;;;;;;;;;;25.40;99.90;;;;;;5038616;28;20368;-52
2023/07/14 11:43:35;;;;;;;7.75;2.58;;;25.40;99.90;;;;;;5043416;28;20087;-52
2023/07/14 11:46:09;;;;;;;5.03;2.45;;;25.40;99.90;;;;;;5039679;28;20091;-52
2023/07/14 11:48:37;;;;;;;5.00;2.67;;;25.60;99.90;;;;;;5038759;28;20033;-59
2023/07/14 11:51:13;;;;;;;6.50;3.08;;;25.50;99.90;;;;;;5034347;28;20110;-56
2023/07/14 11:53:41;;;;;;;5.40;2.47;;;25.30;99.90;;;;;;5042771;28;20076;-53
2023/07/14 11:56:23;;;;;;;5.43;2.58;;;25.40;99.90;;;;;;5040520;28;20048;-52
2023/07/14 11:59:03;;;;;;;6.35;2.80;;;25.50;99.90;;;;;;5034222;28;20033;-55
2023/07/14 12:01:29;;;;;;;5.95;2.55;;;25.70;99.90;;;;;;5034592;28;20044;-54
2023/07/14 12:04:23;;;;;;;4.38;2.65;;;25.80;99.90;;;;;;5039969;28;20032;-52
2023/07/14 12:06:49;;;;;;;;;;;25.50;99.90;;;;;;5031671;28;20036;-54
2023/07/14 12:09:19;;;;;;;6.10;2.50;;;25.90;99.90;;;;;;5038473;28;20006;-53
2023/07/14 12:11:54;;;;;;;8.00;2.85;;;25.90;99.90;;;;;;5036427;28;20583;-53
2023/07/14 12:14:34;;;;;;;7.25;2.80;;;26.10;99.90;;;;;;5036607;28;20280;-52
2023/07/14 12:17:00;;;;;;;7.40;2.97;;;26.10;99.90;;;;;;5033972;28;20033;-52
2023/07/14 12:19:32;;;;;;;5.35;2.70;;;26.10;99.90;;;;;;5028375;28;20099;-55
2023/07/14 12:22:09;;;;;;;5.88;2.92;;;25.80;99.90;;;;;;5026831;28;20308;-52
2023/07/14 12:24:49;;;;;;;6.38;2.90;;;25.90;99.90;;;;;;5035581;28;20680;-54
2023/07/14 12:27:23;;;;;;;5.63;2.85;;;26.00;99.90;;;;;;5036308;28;20546;-52
2023/07/14 12:29:51;;;;;;;3.72;2.55;;;26.00;99.90;;;;;;5036571;28;20492;-50
2023/07/14 12:32:19;;;;;;;6.78;2.63;;;26.20;99.90;;;;;;5037473;28;20048;-54
2023/07/14 12:34:46;;;;;;;6.55;2.80;;;25.90;99.90;;;;;;5037501;28;20044;-55
2023/07/14 12:37:17;;;;;;;5.03;2.75;;;26.70;99.90;;;;;;5037592;28;20047;-54
2023/07/14 12:39:52;;;;;;;5.85;2.88;;;26.70;99.90;;;;;;5041487;28;20048;-56
2023/07/14 12:42:19;;;;;;;5.03;2.47;;;26.70;99.90;;;;;;5036334;28;20044;-53
2023/07/14 12:44:46;;;;;;;7.38;2.80;;;26.30;99.90;;;;;;5041047;28;20488;-52
2023/07/14 12:47:18;;;;;;;7.65;2.70;;;26.70;99.90;;;;;;5039769;28;20051;-52
2023/07/14 12:49:49;;;;;;;7.57;2.80;;;26.60;99.90;;;;;;5039523;28;20125;-54
2023/07/14 12:52:42;;;;;;;8.75;2.80;;;26.70;99.90;;;;;;5040978;28;20562;-54
2023/07/14 12:55:14;;;;;;;6.57;2.65;;;26.50;99.90;;;;;;5036215;28;20063;-54
2023/07/14 12:57:40;;;;;;;6.28;2.67;;;26.50;99.90;;;;;;5039293;28;20029;-52
2023/07/14 13:00:21;;;;;;;4.88;2.45;;;26.60;99.90;;;;;;5042379;28;20037;-51
2023/07/14 13:02:50;;;;;;;5.05;2.63;;;26.80;99.90;;;;;;5039498;28;20136;-55
2023/07/14 13:05:17;;;;;;;4.65;2.45;;;26.80;99.60;;;;;;5036207;28;20587;-53